createdAt,value
2019-02-19T00:05:01.815Z,55.49
2019-02-19T00:10:06.257Z,55.91
2019-02-19T00:15:10.285Z,55.92
2019-02-19T00:20:14.316Z,56.35
2019-02-19T00:25:18.359Z,56.33
2019-02-19T00:30:22.370Z,56.42
2019-02-19T00:35:26.394Z,56.48
2019-02-19T00:40:30.403Z,56.63
2019-02-19T00:45:34.427Z,56.75
2019-02-19T00:50:38.431Z,56.76
2019-02-19T00:55:42.461Z,56.73
2019-02-19T01:00:46.492Z,56.71
2019-02-19T01:05:50.517Z,56.67
2019-02-19T01:10:54.524Z,56.88
2019-02-19T01:15:58.576Z,56.91
2019-02-19T01:21:02.603Z,57.21
2019-02-19T01:26:06.635Z,57.20
2019-02-19T01:31:12.981Z,57.16
2019-02-19T01:36:17.028Z,57.12
2019-02-19T01:41:21.038Z,56.94
2019-02-19T01:46:25.055Z,57.37
2019-02-19T01:51:29.055Z,57.46
2019-02-19T01:56:33.070Z,57.49
2019-02-19T02:01:37.099Z,57.49
2019-02-19T02:06:41.103Z,57.36
2019-02-19T02:11:45.129Z,57.54
2019-02-19T02:16:49.140Z,57.66
2019-02-19T02:21:53.219Z,57.62
2019-02-19T02:26:57.217Z,57.75
2019-02-19T02:32:01.234Z,57.57
2019-02-19T02:37:05.238Z,57.53
2019-02-19T02:42:09.381Z,57.60
2019-02-19T02:47:13.426Z,57.85
2019-02-19T02:52:17.442Z,57.87
2019-02-19T02:57:21.480Z,57.94
2019-02-19T03:02:25.485Z,57.88
2019-02-19T03:07:39.000Z,57.90
2019-02-19T03:12:43.038Z,57.94
2019-02-19T03:17:48.075Z,57.78
2019-02-19T03:22:52.049Z,57.82
2019-02-19T03:27:56.056Z,57.81
2019-02-19T03:33:00.069Z,57.67
2019-02-19T03:38:04.104Z,57.55
2019-02-19T03:43:08.107Z,57.39
2019-02-19T03:48:12.133Z,57.30
2019-02-19T03:53:16.155Z,57.11
2019-02-19T03:58:20.282Z,57.14
2019-02-19T04:03:27.353Z,57.16
2019-02-19T04:08:31.383Z,56.93
2019-02-19T04:13:35.421Z,57.14
2019-02-19T04:18:39.509Z,56.95
2019-02-19T04:23:43.546Z,56.98
2019-02-19T04:28:47.570Z,57.17
2019-02-19T04:33:51.589Z,57.20
2019-02-19T04:38:55.653Z,57.32
2019-02-19T04:43:59.682Z,57.51
2019-02-19T04:49:03.714Z,57.66
2019-02-19T04:54:07.727Z,57.81
2019-02-19T04:59:11.760Z,57.84
2019-02-19T05:04:15.780Z,57.95
2019-02-19T05:09:19.831Z,57.95
2019-02-19T05:14:23.862Z,57.82
2019-02-19T05:19:27.860Z,58.01
2019-02-19T05:24:31.872Z,58.09
2019-02-19T05:29:35.878Z,58.12
2019-02-19T05:34:39.892Z,58.33
2019-02-19T05:39:43.907Z,58.39
2019-02-19T05:44:47.988Z,58.56
2019-02-19T05:49:52.014Z,58.41
2019-02-19T05:54:57.768Z,58.74
2019-02-19T06:00:01.850Z,59.13
2019-02-19T06:05:07.637Z,58.82
2019-02-19T06:10:12.527Z,59.08
2019-02-19T06:15:16.543Z,58.76
2019-02-19T06:20:20.565Z,58.79
2019-02-19T06:25:24.688Z,58.84
2019-02-19T06:30:28.698Z,58.67
2019-02-19T06:35:32.719Z,58.71
2019-02-19T06:40:36.750Z,58.51
2019-02-19T06:45:40.766Z,58.32
2019-02-19T06:50:44.781Z,58.60
2019-02-19T06:55:48.812Z,58.32
2019-02-19T07:00:52.913Z,58.33
2019-02-19T07:05:56.924Z,58.51
2019-02-19T07:11:00.977Z,58.61
2019-02-19T07:16:05.001Z,58.20
2019-02-19T07:21:09.043Z,58.23
2019-02-19T07:26:13.131Z,58.29
2019-02-19T07:31:17.206Z,57.95
2019-02-19T07:36:21.206Z,57.74
2019-02-19T07:41:25.207Z,57.69
2019-02-19T07:46:29.260Z,57.20
2019-02-19T07:51:33.287Z,56.94
2019-02-19T07:56:37.323Z,56.61
2019-02-19T08:01:41.332Z,56.14
2019-02-19T08:06:45.356Z,55.91
2019-02-19T08:11:49.406Z,55.82
2019-02-19T08:16:53.468Z,55.52
2019-02-19T08:21:57.509Z,55.05
2019-02-19T08:27:01.542Z,54.87
2019-02-19T08:32:05.623Z,54.59
2019-02-19T08:37:09.667Z,54.29
2019-02-19T08:42:13.696Z,53.68
2019-02-19T08:47:17.731Z,53.45
2019-02-19T08:52:21.735Z,53.32
2019-02-19T08:57:25.745Z,53.06
2019-02-19T09:02:29.775Z,53.13
2019-02-19T09:07:33.784Z,53.22
2019-02-19T09:12:37.793Z,53.28
2019-02-19T09:17:41.804Z,53.04
2019-02-19T09:22:45.842Z,53.23
2019-02-19T09:27:49.853Z,52.93
2019-02-19T09:32:53.922Z,53.44
2019-02-19T09:37:57.969Z,53.97
2019-02-19T09:43:01.972Z,53.80
2019-02-19T09:48:05.989Z,54.09
2019-02-19T09:53:10.005Z,54.70
2019-02-19T09:58:14.032Z,54.86
2019-02-19T10:03:18.233Z,54.68
2019-02-19T10:08:22.281Z,54.91
2019-02-19T10:13:26.367Z,55.21
2019-02-19T10:18:30.406Z,56.10
2019-02-19T10:23:34.423Z,56.26
2019-02-19T10:28:38.446Z,56.14
2019-02-19T10:33:42.458Z,56.86
2019-02-19T10:38:46.532Z,56.19
2019-02-19T10:43:50.554Z,56.08
2019-02-19T10:48:54.579Z,56.87
2019-02-19T10:53:58.610Z,57.02
2019-02-19T10:59:02.734Z,56.96
2019-02-19T11:04:06.765Z,57.60
2019-02-19T11:09:10.787Z,56.99
2019-02-19T11:14:14.851Z,57.05
2019-02-19T11:19:18.913Z,57.42
2019-02-19T11:24:22.951Z,57.75
2019-02-19T11:29:26.998Z,57.65
2019-02-19T11:34:31.016Z,56.76
2019-02-19T11:39:35.048Z,56.26
2019-02-19T11:44:39.081Z,56.32
2019-02-19T11:49:43.100Z,56.41
2019-02-19T11:54:47.125Z,56.27
2019-02-19T11:59:51.152Z,56.22
2019-02-19T12:04:55.160Z,57.00
2019-02-19T12:09:59.207Z,57.42
2019-02-19T12:15:03.252Z,56.82
2019-02-19T12:20:07.333Z,56.47
2019-02-19T12:25:11.376Z,56.84
2019-02-19T12:30:15.809Z,55.65
2019-02-19T12:35:19.830Z,55.60
2019-02-19T12:40:23.885Z,55.73
2019-02-19T12:45:27.901Z,54.89
2019-02-19T12:50:31.921Z,54.80
2019-02-19T12:55:35.951Z,54.43
2019-02-19T13:00:39.970Z,54.82
2019-02-19T13:05:43.987Z,54.29
2019-02-19T13:10:48.026Z,54.12
2019-02-19T13:15:52.043Z,53.88
2019-02-19T13:20:56.086Z,53.59
2019-02-19T13:26:00.168Z,54.45
2019-02-19T13:31:04.241Z,54.60
2019-02-19T13:36:08.548Z,54.26
2019-02-19T13:41:12.627Z,54.65
2019-02-19T13:46:16.661Z,54.87
2019-02-19T13:51:20.668Z,54.84
2019-02-19T13:56:24.721Z,54.25
2019-02-19T14:01:28.783Z,53.83
2019-02-19T14:06:32.798Z,52.97
2019-02-19T14:11:36.962Z,51.84
2019-02-19T14:16:47.307Z,51.42
2019-02-19T14:22:10.276Z,51.10
2019-02-19T14:27:32.079Z,50.29
2019-02-19T14:33:19.120Z,50.24
2019-02-19T14:38:57.574Z,50.67
2019-02-19T14:44:19.517Z,50.80
2019-02-19T14:49:55.135Z,51.53
2019-02-19T14:55:24.861Z,50.63
2019-02-19T15:00:47.845Z,50.26
2019-02-19T15:06:01.794Z,50.59
2019-02-19T15:11:23.676Z,50.81
2019-02-19T15:16:38.737Z,50.90
2019-02-19T15:22:07.678Z,51.37
2019-02-19T15:27:33.734Z,51.68
2019-02-19T15:33:00.009Z,51.54
2019-02-19T15:38:35.385Z,51.31
2019-02-19T15:43:50.495Z,51.21
2019-02-19T15:49:12.143Z,51.05
2019-02-19T15:54:47.057Z,50.74
2019-02-19T16:00:02.191Z,50.69
2019-02-19T16:05:23.950Z,50.49
2019-02-19T16:10:33.792Z,50.60
2019-02-19T16:16:08.700Z,50.73
2019-02-19T16:21:22.404Z,50.73
2019-02-19T16:26:44.332Z,50.10
2019-02-19T16:32:02.511Z,50.03
2019-02-19T16:37:21.706Z,49.90
2019-02-19T16:42:53.937Z,49.98
2019-02-19T16:48:15.908Z,49.72
2019-02-19T16:53:38.047Z,49.42
2019-02-19T16:59:07.569Z,49.53
2019-02-19T17:04:18.517Z,49.27
2019-02-19T17:09:32.980Z,49.37
2019-02-19T17:14:54.913Z,49.05
2019-02-19T17:20:28.575Z,48.98
2019-02-19T17:25:50.661Z,49.24
2019-02-19T17:31:16.672Z,49.32
2019-02-19T17:36:25.806Z,49.44
2019-02-19T17:41:43.970Z,49.55
2019-02-19T17:47:00.398Z,49.59
2019-02-19T17:52:12.020Z,51.86
2019-02-19T17:57:38.070Z,52.21
2019-02-19T18:02:59.962Z,51.73
2019-02-19T18:08:27.106Z,51.39
2019-02-19T18:13:55.800Z,51.17
2019-02-19T18:18:59.812Z,51.36
2019-02-19T18:24:03.832Z,51.27
2019-02-19T18:29:07.898Z,51.59
2019-02-19T18:34:11.958Z,51.69
2019-02-19T18:39:16.020Z,51.61
2019-02-19T18:44:20.156Z,51.49
2019-02-19T18:49:24.197Z,51.35
2019-02-19T18:54:28.213Z,51.33
2019-02-19T18:59:32.216Z,51.66
2019-02-19T19:04:36.473Z,51.42
2019-02-19T19:09:40.726Z,51.90
2019-02-19T19:14:44.767Z,51.33
2019-02-19T19:19:48.816Z,51.43
2019-02-19T19:24:52.878Z,51.42
2019-02-19T19:29:56.935Z,52.56
2019-02-19T19:35:00.995Z,59.29
2019-02-19T19:40:05.203Z,65.97
2019-02-19T19:45:09.473Z,71.18
2019-02-19T19:50:13.619Z,70.86
2019-02-19T19:55:22.313Z,72.43
2019-02-19T20:00:26.737Z,71.54
2019-02-19T20:05:31.218Z,70.97
2019-02-19T20:10:35.806Z,72.52
2019-02-19T20:15:41.883Z,70.99
2019-02-19T20:20:47.197Z,71.25
2019-02-19T20:25:52.773Z,71.30
2019-02-19T20:30:57.895Z,71.47
2019-02-19T20:36:02.981Z,71.28
2019-02-19T20:41:08.265Z,72.12
2019-02-19T20:46:13.409Z,71.97
2019-02-19T20:51:18.324Z,72.42
2019-02-19T20:56:23.478Z,71.91
2019-02-19T21:01:28.137Z,72.45
2019-02-19T21:06:32.386Z,72.08
2019-02-19T21:11:36.717Z,72.43
2019-02-19T21:16:40.919Z,71.69
2019-02-19T21:21:45.304Z,71.88
2019-02-19T21:26:49.659Z,71.36
2019-02-19T21:31:53.709Z,71.57
2019-02-19T21:36:57.759Z,71.64
2019-02-19T21:42:02.109Z,70.98
2019-02-19T21:47:06.120Z,71.24
2019-02-19T21:52:10.275Z,71.40
2019-02-19T21:57:14.506Z,70.52
2019-02-19T22:02:18.528Z,70.57
2019-02-19T22:07:22.539Z,70.13
2019-02-19T22:12:26.578Z,70.09
2019-02-19T22:17:30.629Z,69.91
2019-02-19T22:22:35.040Z,69.71
2019-02-19T22:27:39.074Z,69.21
2019-02-19T22:32:43.096Z,69.43
2019-02-19T22:37:47.107Z,69.17
2019-02-19T22:42:54.950Z,69.39
2019-02-19T22:48:00.062Z,69.44
2019-02-19T22:53:08.437Z,69.79
2019-02-19T22:58:12.480Z,69.34
2019-02-19T23:03:17.717Z,69.77
2019-02-19T23:08:21.724Z,70.50
2019-02-19T23:13:25.746Z,70.46
2019-02-19T23:18:29.787Z,70.25
2019-02-19T23:23:33.811Z,70.61
2019-02-19T23:28:37.845Z,70.64
2019-02-19T23:33:41.875Z,70.49
2019-02-19T23:38:45.932Z,70.83
2019-02-19T23:43:49.972Z,70.63
2019-02-19T23:48:54.023Z,71.11
2019-02-19T23:53:58.134Z,70.86
2019-02-19T23:59:02.151Z,70.80
